createdAt,value
2018-03-18T00:00:02.914Z,100668.67
2018-03-18T00:02:31.781Z,100661.56
2018-03-18T00:05:00.670Z,100668.30
2018-03-18T00:07:29.914Z,100661.23
2018-03-18T00:09:58.973Z,100656.70
2018-03-18T00:12:28.193Z,100663.38
2018-03-18T00:14:57.525Z,100663.16
2018-03-18T00:17:26.589Z,100658.11
2018-03-18T00:19:55.650Z,100668.89
2018-03-18T00:22:26.335Z,100679.23
2018-03-18T00:24:55.413Z,100669.38
2018-03-18T00:27:24.492Z,100666.62
2018-03-18T00:29:53.930Z,100670.56
2018-03-18T00:32:22.981Z,100660.52
2018-03-18T00:34:52.040Z,100664.11
2018-03-18T00:37:21.121Z,100675.31
2018-03-18T00:39:50.182Z,100678.38
2018-03-18T00:42:19.238Z,100681.89
2018-03-18T00:44:48.681Z,100679.14
2018-03-18T00:47:17.759Z,100678.16
2018-03-18T00:49:46.816Z,100681.67
2018-03-18T00:52:16.180Z,100683.88
2018-03-18T00:54:45.254Z,100693.66
2018-03-18T00:57:14.375Z,100682.90
2018-03-18T00:59:43.649Z,100688.14
2018-03-18T01:02:12.707Z,100690.73
2018-03-18T01:04:41.590Z,100685.78
2018-03-18T01:07:11.058Z,100685.72
2018-03-18T01:09:40.106Z,100682.13
2018-03-18T01:12:09.171Z,100677.97
2018-03-18T01:14:38.529Z,100685.69
2018-03-18T01:17:07.588Z,100680.23
2018-03-18T01:19:36.649Z,100684.64
2018-03-18T01:22:06.068Z,100689.14
2018-03-18T01:24:35.305Z,100689.57
2018-03-18T01:27:04.355Z,100691.87
2018-03-18T01:29:33.835Z,100685.53
2018-03-18T01:32:02.696Z,100680.59
2018-03-18T01:34:31.745Z,100689.60
2018-03-18T01:37:01.214Z,100684.70
2018-03-18T01:39:30.285Z,100684.86
2018-03-18T01:41:59.342Z,100687.06
2018-03-18T01:44:28.426Z,100688.53
2018-03-18T01:46:57.476Z,100683.66
2018-03-18T01:49:26.532Z,100682.32
2018-03-18T01:51:55.985Z,100685.88
2018-03-18T01:54:25.096Z,100679.69
2018-03-18T01:56:54.153Z,100683.73
2018-03-18T01:59:23.250Z,100676.66
2018-03-18T02:01:52.192Z,100685.23
2018-03-18T02:04:21.262Z,100690.63
2018-03-18T02:06:50.456Z,100673.10
2018-03-18T02:09:19.513Z,100682.90
2018-03-18T02:11:48.573Z,100684.80
2018-03-18T02:14:17.908Z,100683.45
2018-03-18T02:16:46.969Z,100679.94
2018-03-18T02:19:16.027Z,100680.39
2018-03-18T02:21:45.430Z,100679.94
2018-03-18T02:24:14.490Z,100669.28
2018-03-18T02:26:43.541Z,100676.02
2018-03-18T02:29:12.622Z,100678.22
2018-03-18T02:31:41.676Z,100672.03
2018-03-18T02:34:10.730Z,100671.20
2018-03-18T02:36:40.086Z,100669.92
2018-03-18T02:39:09.143Z,100666.25
2018-03-18T02:41:38.145Z,100664.11
2018-03-18T02:44:07.605Z,100667.69
2018-03-18T02:46:36.674Z,100673.99
2018-03-18T02:49:05.609Z,100665.45
2018-03-18T02:51:34.881Z,100669.22
2018-03-18T02:54:03.943Z,100666.89
2018-03-18T02:56:32.994Z,100669.22
2018-03-18T02:59:02.375Z,100670.17
2018-03-18T03:01:31.441Z,100675.56
2018-03-18T03:04:00.501Z,100670.94
2018-03-18T03:06:29.976Z,100676.48
2018-03-18T03:08:59.039Z,100673.35
2018-03-18T03:11:28.090Z,100672.50
2018-03-18T03:13:57.471Z,100673.78
2018-03-18T03:16:26.573Z,100679.27
2018-03-18T03:18:55.634Z,100679.75
2018-03-18T03:21:25.073Z,100667.20
2018-03-18T03:23:54.125Z,100673.51
2018-03-18T03:26:23.260Z,100679.33
2018-03-18T03:28:52.850Z,100671.30
2018-03-18T03:31:21.915Z,100680.73
2018-03-18T03:33:50.977Z,100674.34
2018-03-18T03:36:20.440Z,100677.64
2018-03-18T03:38:49.503Z,100668.27
2018-03-18T03:41:18.565Z,100679.48
2018-03-18T03:43:47.929Z,100690.26
2018-03-18T03:46:16.993Z,100678.56
2018-03-18T03:48:46.051Z,100693.87
2018-03-18T03:51:15.122Z,100693.81
2018-03-18T03:53:44.173Z,100687.07
2018-03-18T03:56:13.250Z,100685.30
2018-03-18T03:58:42.621Z,100684.84
2018-03-18T04:01:11.670Z,100694.20
2018-03-18T04:03:40.730Z,100684.87
2018-03-18T04:06:10.272Z,100701.86
2018-03-18T04:08:39.514Z,100703.79
2018-03-18T04:11:08.567Z,100703.02
2018-03-18T04:13:37.633Z,100701.25
2018-03-18T04:16:06.686Z,100700.48
2018-03-18T04:18:35.746Z,100700.48
2018-03-18T04:21:05.353Z,100698.43
2018-03-18T04:23:34.225Z,100708.72
2018-03-18T04:26:03.281Z,100702.72
2018-03-18T04:28:32.662Z,100710.42
2018-03-18T04:31:01.720Z,100705.13
2018-03-18T04:33:30.771Z,100699.74
2018-03-18T04:36:00.056Z,100703.91
2018-03-18T04:38:29.114Z,100701.27
2018-03-18T04:40:58.182Z,100705.41
2018-03-18T04:43:27.274Z,100710.42
2018-03-18T04:45:56.329Z,100699.83
2018-03-18T04:48:25.382Z,100711.45
2018-03-18T04:50:54.458Z,100714.21
2018-03-18T04:53:23.287Z,100709.74
2018-03-18T04:55:52.380Z,100707.11
2018-03-18T04:58:21.924Z,100711.73
2018-03-18T05:00:50.982Z,100708.05
2018-03-18T05:03:20.041Z,100710.44
2018-03-18T05:05:49.291Z,100707.75
2018-03-18T05:08:18.354Z,100710.95
2018-03-18T05:10:47.410Z,100722.13
2018-03-18T05:13:16.790Z,100722.65
2018-03-18T05:15:45.858Z,100720.51
2018-03-18T05:18:15.183Z,100725.98
2018-03-18T05:20:44.589Z,100708.53
2018-03-18T05:23:13.669Z,100730.48
2018-03-18T05:25:42.718Z,100731.40
2018-03-18T05:28:12.181Z,100725.61
2018-03-18T05:30:41.239Z,100725.67
2018-03-18T05:33:10.121Z,100733.41
2018-03-18T05:35:39.570Z,100730.71
2018-03-18T05:38:08.437Z,100740.28
2018-03-18T05:40:37.502Z,100731.78
2018-03-18T05:43:06.603Z,100742.13
2018-03-18T05:45:35.550Z,100733.13
2018-03-18T05:48:04.601Z,100742.55
2018-03-18T05:50:33.702Z,100734.62
2018-03-18T05:53:02.758Z,100743.13
2018-03-18T05:55:31.813Z,100738.72
2018-03-18T05:58:00.885Z,100754.88
2018-03-18T06:00:29.951Z,100766.08
2018-03-18T06:02:59.005Z,100750.41
2018-03-18T06:05:28.078Z,100762.18
2018-03-18T06:07:57.021Z,100765.73
2018-03-18T06:10:26.121Z,100765.64
2018-03-18T06:12:55.513Z,100764.81
2018-03-18T06:15:24.566Z,100764.95
2018-03-18T06:17:53.501Z,100771.27
2018-03-18T06:20:22.870Z,100768.14
2018-03-18T06:22:51.921Z,100768.63
2018-03-18T06:25:20.977Z,100773.64
2018-03-18T06:27:50.574Z,100778.05
2018-03-18T06:30:19.628Z,100774.59
2018-03-18T06:32:48.697Z,100784.41
2018-03-18T06:35:17.764Z,100784.84
2018-03-18T06:37:46.830Z,100789.37
2018-03-18T06:40:15.890Z,100783.58
2018-03-18T06:42:45.343Z,100793.86
2018-03-18T06:45:14.405Z,100782.30
2018-03-18T06:47:43.485Z,100786.33
2018-03-18T06:50:12.561Z,100794.35
2018-03-18T06:52:41.625Z,100795.98
2018-03-18T06:55:10.681Z,100801.02
2018-03-18T06:57:39.757Z,100802.38
2018-03-18T07:00:08.818Z,100812.77
2018-03-18T07:02:37.869Z,100799.86
2018-03-18T07:05:06.954Z,100802.38
2018-03-18T07:07:36.009Z,100813.75
2018-03-18T07:10:05.070Z,100815.52
2018-03-18T07:12:34.478Z,100814.55
2018-03-18T07:15:03.506Z,100828.84
2018-03-18T07:17:32.570Z,100821.34
2018-03-18T07:20:02.038Z,100822.74
2018-03-18T07:22:31.277Z,100833.94
2018-03-18T07:25:00.342Z,100821.34
2018-03-18T07:27:29.415Z,100831.25
2018-03-18T07:29:58.475Z,100829.70
2018-03-18T07:32:27.535Z,100837.49
2018-03-18T07:34:56.954Z,100844.30
2018-03-18T07:37:26.022Z,100844.28
2018-03-18T07:39:55.085Z,100844.28
2018-03-18T07:42:24.156Z,100837.20
2018-03-18T07:44:53.214Z,100847.34
2018-03-18T07:47:22.273Z,100857.20
2018-03-18T07:49:51.358Z,100861.66
2018-03-18T07:52:20.418Z,100834.45
2018-03-18T07:54:49.475Z,100842.02
2018-03-18T07:57:18.569Z,100851.47
2018-03-18T07:59:47.635Z,100857.77
2018-03-18T08:02:16.697Z,100851.58
2018-03-18T08:04:45.770Z,100845.16
2018-03-18T08:07:14.822Z,100862.66
2018-03-18T08:09:43.880Z,100859.17
2018-03-18T08:12:13.282Z,100858.25
2018-03-18T08:14:42.338Z,100862.80
2018-03-18T08:17:11.281Z,100862.78
2018-03-18T08:19:40.359Z,100864.76
2018-03-18T08:22:09.418Z,100862.50
2018-03-18T08:24:38.492Z,100856.27
2018-03-18T08:27:07.663Z,100870.17
2018-03-18T08:29:36.732Z,100869.17
2018-03-18T08:32:05.789Z,100858.59
2018-03-18T08:34:35.237Z,100862.58
2018-03-18T08:37:04.309Z,100860.31
2018-03-18T08:39:33.374Z,100862.38
2018-03-18T08:42:03.449Z,100855.22
2018-03-18T08:44:32.503Z,100865.50
2018-03-18T08:47:01.560Z,100855.99
2018-03-18T08:49:31.150Z,100858.34
2018-03-18T08:52:00.203Z,100855.41
2018-03-18T08:54:29.272Z,100862.09
2018-03-18T08:56:58.743Z,100861.01
2018-03-18T08:59:27.639Z,100861.66
2018-03-18T09:01:56.685Z,100862.06
2018-03-18T09:04:25.772Z,100868.02
2018-03-18T09:06:54.839Z,100862.92
2018-03-18T09:09:23.901Z,100859.52
2018-03-18T09:11:53.098Z,100862.58
2018-03-18T09:14:22.162Z,100870.22
2018-03-18T09:16:51.223Z,100877.33
2018-03-18T09:19:20.322Z,100886.16
2018-03-18T09:21:49.377Z,100870.57
2018-03-18T09:24:18.455Z,100876.89
2018-03-18T09:26:47.525Z,100868.94
2018-03-18T09:29:16.600Z,100861.34
2018-03-18T09:31:45.657Z,100864.90
2018-03-18T09:34:14.755Z,100867.10
2018-03-18T09:36:43.813Z,100873.89
2018-03-18T09:39:12.866Z,100858.68
2018-03-18T09:41:41.952Z,100861.58
2018-03-18T09:44:11.003Z,100869.66
2018-03-18T09:46:40.058Z,100865.21
2018-03-18T09:49:09.134Z,100860.58
2018-03-18T09:51:38.191Z,100869.08
2018-03-18T09:54:07.245Z,100871.72
2018-03-18T09:56:36.726Z,100870.43
2018-03-18T09:59:05.826Z,100871.72
2018-03-18T10:01:34.881Z,100877.53
2018-03-18T10:04:04.442Z,100860.60
2018-03-18T10:06:33.498Z,100871.29
2018-03-18T10:09:02.369Z,100866.39
2018-03-18T10:11:31.453Z,100864.06
2018-03-18T10:14:00.561Z,100872.23
2018-03-18T10:16:29.798Z,100860.46
2018-03-18T10:18:58.892Z,100873.55
2018-03-18T10:21:27.955Z,100872.69
2018-03-18T10:23:57.014Z,100867.73
2018-03-18T10:26:26.470Z,100870.80
2018-03-18T10:28:55.549Z,100877.10
2018-03-18T10:31:24.468Z,100877.59
2018-03-18T10:33:54.293Z,100880.28
2018-03-18T10:36:23.356Z,100875.67
2018-03-18T10:38:52.410Z,100877.94
2018-03-18T10:41:21.485Z,100877.45
2018-03-18T10:43:50.574Z,100885.53
2018-03-18T10:46:19.470Z,100881.98
2018-03-18T10:48:48.646Z,100873.84
2018-03-18T10:51:17.694Z,100878.66
2018-03-18T10:53:46.755Z,100876.53
2018-03-18T10:56:15.762Z,100873.00
2018-03-18T10:58:44.824Z,100864.55
2018-03-18T11:01:19.450Z,100873.00
2018-03-18T11:03:54.010Z,100868.54
2018-03-18T11:06:23.093Z,100870.94
2018-03-18T11:08:52.228Z,100868.19
2018-03-18T11:11:21.430Z,100875.38
2018-03-18T11:13:50.766Z,100866.84
2018-03-18T11:16:19.867Z,100859.25
2018-03-18T11:18:49.099Z,100856.56
2018-03-18T11:21:18.182Z,100866.96
2018-03-18T11:23:47.068Z,100854.02
2018-03-18T11:26:16.341Z,100851.61
2018-03-18T11:28:45.432Z,100868.19
2018-03-18T11:31:14.527Z,100855.62
2018-03-18T11:33:43.588Z,100854.27
2018-03-18T11:36:12.677Z,100856.53
2018-03-18T11:38:41.746Z,100863.72
2018-03-18T11:41:10.833Z,100858.25
2018-03-18T11:43:39.827Z,100851.58
2018-03-18T11:46:08.881Z,100855.50
2018-03-18T11:48:37.950Z,100859.97
2018-03-18T11:51:07.027Z,100850.95
2018-03-18T11:53:36.094Z,100852.88
2018-03-18T11:56:05.175Z,100859.41
2018-03-18T11:58:34.863Z,100851.23
2018-03-18T12:01:03.979Z,100841.33
2018-03-18T12:03:33.032Z,100846.77
2018-03-18T12:06:02.118Z,100845.91
2018-03-18T12:08:42.520Z,100859.95
2018-03-18T12:11:11.604Z,100845.52
2018-03-18T12:13:40.669Z,100845.02
2018-03-18T12:16:09.739Z,100846.86
2018-03-18T12:18:39.123Z,100848.20
2018-03-18T12:21:08.200Z,100847.69
2018-03-18T12:23:37.260Z,100840.84
2018-03-18T12:26:06.382Z,100856.36
2018-03-18T12:28:35.437Z,100850.13
2018-03-18T12:31:04.510Z,100840.76
2018-03-18T12:33:33.992Z,100838.49
2018-03-18T12:36:03.050Z,100843.33
2018-03-18T12:38:32.327Z,100841.98
2018-03-18T12:41:02.398Z,100841.84
2018-03-18T12:43:31.218Z,100842.19
2018-03-18T12:46:00.289Z,100838.84
2018-03-18T12:48:29.670Z,100837.09
2018-03-18T12:50:58.726Z,100839.15
2018-03-18T12:53:27.794Z,100824.80
2018-03-18T12:55:57.157Z,100832.05
2018-03-18T12:58:26.213Z,100831.53
2018-03-18T13:00:55.336Z,100828.84
2018-03-18T13:03:24.962Z,100831.36
2018-03-18T13:05:54.044Z,100833.16
2018-03-18T13:08:23.292Z,100833.16
2018-03-18T13:10:52.959Z,100829.70
2018-03-18T13:13:22.014Z,100828.23
2018-03-18T13:15:51.077Z,100819.36
2018-03-18T13:18:20.469Z,100825.03
2018-03-18T13:20:49.530Z,100820.44
2018-03-18T13:23:18.589Z,100822.91
2018-03-18T13:25:47.680Z,100819.98
2018-03-18T13:28:16.746Z,100813.27
2018-03-18T13:30:45.816Z,100817.11
2018-03-18T13:33:15.182Z,100808.23
2018-03-18T13:35:44.241Z,100814.91
2018-03-18T13:38:13.334Z,100814.97
2018-03-18T13:40:42.410Z,100821.70
2018-03-18T13:43:11.468Z,100809.03
2018-03-18T13:45:40.540Z,100807.20
2018-03-18T13:48:09.618Z,100809.09
2018-03-18T13:50:38.671Z,100813.25
2018-03-18T13:53:10.871Z,100823.53
2018-03-18T13:55:40.353Z,100815.54
2018-03-18T13:58:09.435Z,100807.61
2018-03-18T14:00:38.496Z,100812.79
2018-03-18T14:03:07.572Z,100810.56
2018-03-18T14:05:36.700Z,100811.56
2018-03-18T14:08:05.755Z,100813.25
2018-03-18T14:10:34.847Z,100808.87
2018-03-18T14:13:03.898Z,100809.78
2018-03-18T14:15:32.962Z,100810.27
2018-03-18T14:18:02.051Z,100810.09
2018-03-18T14:20:31.120Z,100811.78
2018-03-18T14:23:00.177Z,100808.32
2018-03-18T14:25:29.262Z,100808.32
2018-03-18T14:27:58.322Z,100808.81
2018-03-18T14:30:27.373Z,100802.50
2018-03-18T14:32:56.458Z,100809.73
2018-03-18T14:35:25.518Z,100811.91
2018-03-18T14:37:54.582Z,100801.56
2018-03-18T14:40:23.658Z,100808.30
2018-03-18T14:42:52.727Z,100819.44
2018-03-18T14:45:21.794Z,100814.88
2018-03-18T14:47:50.874Z,100823.56
2018-03-18T14:50:19.930Z,100818.30
2018-03-18T14:52:48.987Z,100818.66
2018-03-18T14:55:18.073Z,100806.89
2018-03-18T14:57:47.137Z,100825.83
2018-03-18T15:00:16.206Z,100822.12
2018-03-18T15:02:45.534Z,100822.27
2018-03-18T15:05:14.614Z,100824.97
2018-03-18T15:07:43.674Z,100830.30
2018-03-18T15:10:12.771Z,100833.05
2018-03-18T15:12:41.926Z,100828.66
2018-03-18T15:15:10.988Z,100827.72
2018-03-18T15:17:40.070Z,100827.29
2018-03-18T15:20:09.137Z,100826.17
2018-03-18T15:22:38.191Z,100819.92
2018-03-18T15:25:07.306Z,100832.36
2018-03-18T15:27:36.202Z,100818.58
2018-03-18T15:30:06.026Z,100822.12
2018-03-18T15:32:35.099Z,100823.05
2018-03-18T15:35:03.857Z,100826.11
2018-03-18T15:37:32.775Z,100823.91
2018-03-18T15:40:01.884Z,100825.31
2018-03-18T15:42:31.134Z,100836.94
2018-03-18T15:45:00.194Z,100825.19
2018-03-18T15:47:29.638Z,100831.19
2018-03-18T15:49:58.705Z,100829.86
2018-03-18T15:52:27.863Z,100824.05
2018-03-18T15:54:57.064Z,100835.80
2018-03-18T15:57:26.126Z,100838.84
2018-03-18T15:59:55.186Z,100833.91
2018-03-18T16:02:24.307Z,100832.90
2018-03-18T16:04:53.550Z,100833.82
2018-03-18T16:07:22.707Z,100838.66
2018-03-18T16:09:51.920Z,100831.13
2018-03-18T16:12:20.973Z,100834.80
2018-03-18T16:14:50.029Z,100819.58
2018-03-18T16:17:19.126Z,100830.27
2018-03-18T16:19:48.198Z,100823.63
2018-03-18T16:22:17.254Z,100837.02
2018-03-18T16:24:46.332Z,100837.23
2018-03-18T16:27:15.394Z,100835.52
2018-03-18T16:29:55.774Z,100838.55
2018-03-18T16:32:24.838Z,100844.02
2018-03-18T16:34:53.904Z,100845.73
2018-03-18T16:37:23.305Z,100845.45
2018-03-18T16:39:52.178Z,100840.13
2018-03-18T16:42:21.242Z,100850.33
2018-03-18T16:44:50.326Z,100847.23
2018-03-18T16:47:19.406Z,100853.22
2018-03-18T16:49:48.462Z,100854.42
2018-03-18T16:52:17.559Z,100856.36
2018-03-18T16:54:46.610Z,100871.23
2018-03-18T16:57:15.713Z,100873.87
2018-03-18T16:59:44.789Z,100882.38
2018-03-18T17:02:13.850Z,100884.33
2018-03-18T17:04:42.786Z,100895.89
2018-03-18T17:07:11.870Z,100884.34
2018-03-18T17:09:40.917Z,100892.34
2018-03-18T17:12:09.979Z,100892.43
2018-03-18T17:14:39.061Z,100893.75
2018-03-18T17:17:08.125Z,100895.55
2018-03-18T17:19:37.186Z,100904.95
2018-03-18T17:22:06.265Z,100904.66
2018-03-18T17:24:36.690Z,100910.19
2018-03-18T17:27:05.980Z,100909.19
2018-03-18T17:29:35.059Z,100916.34
2018-03-18T17:32:04.127Z,100919.78
2018-03-18T17:34:33.186Z,100916.29
2018-03-18T17:37:02.342Z,100922.53
2018-03-18T17:39:31.566Z,100925.94
2018-03-18T17:42:00.626Z,100931.44
2018-03-18T17:44:40.917Z,100933.98
2018-03-18T17:47:21.361Z,100942.98
2018-03-18T17:50:01.404Z,100943.92
2018-03-18T17:52:41.762Z,100948.45
2018-03-18T18:08:39.358Z,100979.33
2018-03-18T18:11:08.417Z,100986.14
2018-03-18T18:13:37.482Z,100979.77
2018-03-18T18:16:06.554Z,100986.49
2018-03-18T18:18:35.601Z,100986.81
2018-03-18T18:21:04.662Z,100998.98
2018-03-18T18:23:33.738Z,101000.88
2018-03-18T18:26:02.799Z,101000.47
2018-03-18T18:28:31.896Z,101006.71
2018-03-18T18:31:01.166Z,101009.46
2018-03-18T18:33:30.221Z,101014.84
2018-03-18T18:35:59.276Z,101014.84
2018-03-18T18:38:28.373Z,101013.98
2018-03-18T18:40:57.346Z,101022.49
2018-03-18T18:43:26.449Z,101023.47
2018-03-18T18:45:55.694Z,101016.76
2018-03-18T18:48:24.758Z,101025.12
2018-03-18T18:50:53.621Z,101026.96
2018-03-18T18:53:23.029Z,101029.66
2018-03-18T18:55:52.030Z,101024.70
2018-03-18T18:58:21.090Z,101029.71
2018-03-18T19:00:50.304Z,101026.53
2018-03-18T19:03:19.124Z,101033.27
2018-03-18T19:05:48.181Z,101035.52
2018-03-18T19:08:18.182Z,101036.03
2018-03-18T19:10:47.744Z,101040.61
2018-03-18T19:13:16.802Z,101036.03
2018-03-18T19:15:46.203Z,101031.27
2018-03-18T19:18:15.298Z,101033.53
2018-03-18T19:20:44.375Z,101033.59
2018-03-18T19:23:13.785Z,101037.70
2018-03-18T19:25:42.838Z,101034.50
2018-03-18T19:28:11.994Z,101033.02
2018-03-18T19:30:41.277Z,101035.61
2018-03-18T19:33:10.338Z,101040.27
2018-03-18T19:35:39.293Z,101039.89
2018-03-18T19:38:08.402Z,101040.37
2018-03-18T19:40:37.462Z,101037.70
2018-03-18T19:43:06.516Z,101044.55
2018-03-18T19:45:35.593Z,101048.96
2018-03-18T19:48:04.656Z,101047.48
2018-03-18T19:50:33.714Z,101048.96
2018-03-18T19:53:03.247Z,101043.95
2018-03-18T19:55:32.259Z,101050.25
2018-03-18T19:58:01.323Z,101061.13
2018-03-18T20:00:30.403Z,101057.12
2018-03-18T20:02:59.463Z,101059.78
2018-03-18T20:05:28.525Z,101061.02
2018-03-18T20:07:57.908Z,101067.45
2018-03-18T20:10:26.967Z,101056.69
2018-03-18T20:12:56.027Z,101063.84
2018-03-18T20:15:25.103Z,101075.10
2018-03-18T20:17:54.160Z,101071.98
2018-03-18T20:20:23.284Z,101073.38
2018-03-18T20:22:52.382Z,101072.11
2018-03-18T20:25:21.450Z,101082.02
2018-03-18T20:27:50.499Z,101082.45
2018-03-18T20:30:19.465Z,101091.38
2018-03-18T20:32:48.385Z,101086.48
2018-03-18T20:35:17.458Z,101091.88
2018-03-18T20:37:46.548Z,101094.48
2018-03-18T20:40:15.601Z,101093.27
2018-03-18T20:42:44.661Z,101088.70
2018-03-18T20:45:13.745Z,101092.73
2018-03-18T20:47:42.810Z,101090.82
2018-03-18T20:50:11.870Z,101092.70
2018-03-18T20:52:41.237Z,101090.52
2018-03-18T20:55:10.302Z,101094.08
2018-03-18T20:57:39.372Z,101092.66
2018-03-18T21:00:08.478Z,101096.77
2018-03-18T21:02:37.533Z,101101.16
2018-03-18T21:05:06.590Z,101099.09
2018-03-18T21:07:35.977Z,101101.67
2018-03-18T21:10:05.122Z,101100.66
2018-03-18T21:12:34.178Z,101110.39
2018-03-18T21:15:03.266Z,101110.75
2018-03-18T21:17:32.326Z,101098.69
2018-03-18T21:20:01.427Z,101102.54
2018-03-18T21:22:31.054Z,101108.48
2018-03-18T21:25:00.114Z,101102.24
2018-03-18T21:27:29.174Z,101106.02
2018-03-18T21:29:58.064Z,101105.47
2018-03-18T21:32:26.938Z,101100.63
2018-03-18T21:34:55.992Z,101107.81
2018-03-18T21:37:25.222Z,101103.75
2018-03-18T21:39:54.275Z,101102.89
2018-03-18T21:42:23.340Z,101107.68
2018-03-18T21:44:52.450Z,101102.30
2018-03-18T21:47:21.506Z,101103.94
2018-03-18T21:49:50.377Z,101104.86
2018-03-18T21:52:19.790Z,101108.03
2018-03-18T21:54:48.856Z,101101.17
2018-03-18T21:57:17.917Z,101113.53
2018-03-18T21:59:47.259Z,101112.16
2018-03-18T22:02:16.314Z,101104.88
2018-03-18T22:04:45.373Z,101110.81
2018-03-18T22:07:14.453Z,101111.73
2018-03-18T22:09:43.530Z,101111.73
2018-03-18T22:12:12.593Z,101115.30
2018-03-18T22:14:41.669Z,101107.20
2018-03-18T22:17:10.721Z,101111.24
2018-03-18T22:19:39.786Z,101113.16
2018-03-18T22:22:08.862Z,101105.45
2018-03-18T22:24:37.914Z,101099.69
2018-03-18T22:27:06.973Z,101103.67
2018-03-18T22:29:36.114Z,101099.13
2018-03-18T22:32:05.166Z,101109.48
2018-03-18T22:34:34.226Z,101110.89
2018-03-18T22:37:03.118Z,101105.08
2018-03-18T22:39:32.173Z,101114.44
2018-03-18T22:42:01.235Z,101113.16
2018-03-18T22:44:30.310Z,101107.71
2018-03-18T22:46:59.382Z,101109.98
2018-03-18T22:49:28.462Z,101108.14
2018-03-18T22:51:57.814Z,101109.48
2018-03-18T22:54:26.874Z,101108.14
2018-03-18T22:56:57.412Z,101099.55
2018-03-18T22:59:26.462Z,101107.23
2018-03-18T23:01:55.521Z,101104.64
2018-03-18T23:04:24.595Z,101108.25
2018-03-18T23:06:53.649Z,101108.14
2018-03-18T23:09:22.711Z,101109.47
2018-03-18T23:11:52.073Z,101108.63
2018-03-18T23:14:21.174Z,101114.44
2018-03-18T23:16:50.283Z,101108.92
2018-03-18T23:19:19.354Z,101112.48
2018-03-18T23:21:48.424Z,101112.40
2018-03-18T23:24:17.481Z,101110.63
2018-03-18T23:26:46.861Z,101102.59
2018-03-18T23:29:15.919Z,101112.34
2018-03-18T23:31:44.975Z,101103.89
2018-03-18T23:34:14.529Z,101100.28
2018-03-18T23:36:44.369Z,101100.66
2018-03-18T23:39:13.459Z,101101.98
2018-03-18T23:41:42.957Z,101101.06
2018-03-18T23:44:12.017Z,101107.87
2018-03-18T23:46:41.072Z,101100.23
2018-03-18T23:49:10.449Z,101102.84
2018-03-18T23:51:39.514Z,101102.00
2018-03-18T23:54:08.578Z,101104.62
2018-03-18T23:56:37.870Z,101102.30
2018-03-18T23:59:06.922Z,101105.91
